Airport ICAO


07:27 UTC

8°C

Fog patches


An affordable passengers' Moving Map for your aircraft. Made for the iPad and the iPhone
More information here

LFPM Villaroche


Melun FRANCE   IFR CAT I


METAR LFPM 200700Z AUTO 16002KT 1400 BCFG NSC 08/08 Q1023 0h27min





NOTAMS

OPEN